Airfield :
LOGIN :

Register | Disclaimer

   EN    FR    IT 

 










Legend :    VFR   Marginal VFR   IFR   Intensive IFR   Very Intensive IFR
Visi :
Ceiling :
>= 8 km
>= 3000ft
5 to 8 km
1000 to 3000 ft
1500m to 5 km
500 to 1000 ft
800 to 1500m
200 to 500 ft
< 800m
< 200 ft
Symbols :   Thunderstorms  Fog  Heavy snow  Heavy precipitations  Wind > 20 kt
SIGMETs :     Misc.  Thunderstorms  Icing  Turbulence  Mountain Waves  Volcanic Ashes






- Airport Elevation : 26 ft
- IATA code : GLA


EGPF - Glasgow

CURRENT METAR :
  • 250350Z AUTO 13005KT 9999 OVC042 11/09 Q1018

EXPIRED METARs :
  • 250320Z AUTO 13005KT 9999 OVC043 12/09 Q1018
  • 250250Z AUTO 15004KT 9999 OVC041 12/09 Q1018
  • 250220Z AUTO 11005KT 9999 BKN045 12/10 Q1018
  • 250150Z AUTO 09003KT 9999 FEW025 BKN033 12/10 Q1018
  • 250120Z AUTO 07002KT 9000 FEW013 OVC024 12/10 Q1019
  • 250050Z AUTO 04001KT 9000 BKN012 OVC027 12/10 Q1019
  • 250020Z AUTO 00000KT 9000 SCT011 OVC026 12/10 Q1019
  • 242350Z AUTO VRB01KT 9999 BKN010 OVC024 12/10 Q1019
  • 242320Z AUTO VRB02KT 9999 BKN009 OVC019 12/10 Q1019

TAF TAF EGPF
Valid from the 25 at 00:00 until the 26 at 00:00 UTC


242257Z 2500/2524 19007KT 9999 SCT009 BKN025
TEMPO 2500/2505 7000 BKN009
BECMG 2515/2518 08010KT
PROB40
TEMPO 2521/2524 6000 -RADZ
ATIS : +44 141 887 7449



MET'MAP, your aeronautical weather chart ! - Copyright ORBIFLY December 2007 - Disclaimer

ORBIFLY MET'MAP TEAM :

Programming & Development : Alexandra Zaïnal
Original concept : Baudouin d'Aumeries
Technical & hardware support : Manuel Goepfert
Assistance : Marc-Olivier Méhu




SOURCES & CREDITS :

   NOAA